createdAt,value
2023-02-02T00:01:25.226Z,24.03
2023-02-02T00:03:53.961Z,12.87
2023-02-02T00:06:24.437Z,15.90
2023-02-02T00:08:52.860Z,22.03
2023-02-02T00:11:21.556Z,15.70
2023-02-02T00:13:49.693Z,19.00
2023-02-02T00:16:36.303Z,18.53
2023-02-02T00:19:06.266Z,12.17
2023-02-02T00:21:36.131Z,16.83
2023-02-02T00:24:04.343Z,21.33
2023-02-02T00:26:32.752Z,21.00
2023-02-02T00:29:00.970Z,18.03
2023-02-02T00:31:29.228Z,14.33
2023-02-02T00:33:57.473Z,20.40
2023-02-02T00:36:25.770Z,21.37
2023-02-02T00:38:55.289Z,22.13
2023-02-02T00:41:23.523Z,17.77
2023-02-02T00:44:05.639Z,17.67
2023-02-02T00:46:33.839Z,18.47
2023-02-02T00:49:01.998Z,19.87
2023-02-02T00:51:30.232Z,22.97
2023-02-02T00:53:59.686Z,15.73
2023-02-02T00:56:27.919Z,19.30
2023-02-02T00:58:56.095Z,17.27
2023-02-02T01:01:24.587Z,23.37
2023-02-02T01:03:53.068Z,17.90
2023-02-02T01:06:21.487Z,18.17
2023-02-02T01:08:49.631Z,19.47
2023-02-02T01:11:19.425Z,24.97
2023-02-02T01:13:47.640Z,19.57
2023-02-02T01:16:15.925Z,17.70
2023-02-02T01:18:44.252Z,21.03
2023-02-02T01:21:13.632Z,11.97
2023-02-02T01:23:42.300Z,18.90
2023-02-02T01:26:12.351Z,21.03
2023-02-02T01:28:42.182Z,16.97
2023-02-02T01:31:11.476Z,22.17
2023-02-02T01:33:39.775Z,16.47
2023-02-02T01:36:09.187Z,16.40
2023-02-02T01:38:37.369Z,16.43
2023-02-02T01:41:06.035Z,18.83
2023-02-02T01:43:49.318Z,20.53
2023-02-02T01:46:20.179Z,21.27
2023-02-02T01:48:49.904Z,21.10
2023-02-02T01:51:20.386Z,17.07
2023-02-02T01:53:49.730Z,18.50
2023-02-02T01:56:20.939Z,17.07
2023-02-02T01:58:49.239Z,22.90
2023-02-02T02:01:18.888Z,14.13
2023-02-02T02:03:47.162Z,21.67
2023-02-02T02:06:17.242Z,19.87
2023-02-02T02:08:48.396Z,25.63
2023-02-02T02:11:16.583Z,13.13
2023-02-02T02:14:02.290Z,24.13
2023-02-02T02:16:34.988Z,18.90
2023-02-02T02:19:13.009Z,21.43
2023-02-02T02:22:13.813Z,21.70
2023-02-02T02:25:17.244Z,12.20
2023-02-02T02:28:00.988Z,15.60
2023-02-02T02:30:40.202Z,20.27
2023-02-02T02:33:11.714Z,14.77
2023-02-02T02:35:51.683Z,23.40
2023-02-02T02:38:23.351Z,23.53
2023-02-02T02:40:53.469Z,19.60
2023-02-02T02:43:23.198Z,18.13
2023-02-02T02:45:51.621Z,18.70
2023-02-02T02:48:21.174Z,19.60
2023-02-02T02:50:50.134Z,11.73
2023-02-02T02:53:19.926Z,15.10
2023-02-02T02:55:49.148Z,22.87
2023-02-02T02:58:20.671Z,17.47
2023-02-02T03:00:52.370Z,17.87
2023-02-02T03:03:29.534Z,11.13
2023-02-02T03:06:02.317Z,16.57
2023-02-02T03:08:33.258Z,24.53
2023-02-02T03:11:03.280Z,16.33
2023-02-02T03:13:32.458Z,18.53
2023-02-02T03:16:01.516Z,12.60
2023-02-02T03:18:31.600Z,14.20
2023-02-02T03:20:59.801Z,18.60
2023-02-02T03:23:28.283Z,12.93
2023-02-02T03:25:56.518Z,24.13
2023-02-02T03:28:25.452Z,12.57
2023-02-02T03:30:54.176Z,18.50
2023-02-02T03:33:22.549Z,21.93
2023-02-02T03:35:52.028Z,15.30
2023-02-02T03:38:20.235Z,17.83
2023-02-02T03:40:48.372Z,19.73
2023-02-02T03:43:21.377Z,14.17
2023-02-02T03:45:49.596Z,19.17
2023-02-02T03:48:17.815Z,14.93
2023-02-02T03:50:46.028Z,23.63
2023-02-02T03:53:15.522Z,15.43
2023-02-02T03:55:43.674Z,20.23
2023-02-02T03:58:11.882Z,21.27
2023-02-02T04:00:40.086Z,13.90
2023-02-02T04:03:08.348Z,23.13
2023-02-02T04:05:36.532Z,15.77
2023-02-02T04:08:04.715Z,16.33
2023-02-02T04:10:34.263Z,18.57
2023-02-02T04:13:02.478Z,17.93
2023-02-02T04:15:30.699Z,16.00
2023-02-02T04:17:58.909Z,16.00
2023-02-02T04:20:27.067Z,14.97
2023-02-02T04:22:55.975Z,15.13
2023-02-02T04:25:24.625Z,19.90
2023-02-02T04:27:54.432Z,14.00
2023-02-02T04:30:22.762Z,10.83
2023-02-02T04:32:52.634Z,14.77
2023-02-02T04:35:20.763Z,16.27
2023-02-02T04:37:48.957Z,13.90
2023-02-02T04:40:17.326Z,18.73
2023-02-02T04:42:45.788Z,13.17
2023-02-02T04:45:15.408Z,20.20
2023-02-02T04:47:43.601Z,16.00
2023-02-02T04:50:13.166Z,12.33
2023-02-02T04:52:41.382Z,17.20
2023-02-02T04:55:10.086Z,17.60
2023-02-02T04:57:38.512Z,14.30
2023-02-02T05:00:07.621Z,12.13
2023-02-02T05:02:38.674Z,12.90
2023-02-02T05:05:07.905Z,12.40
2023-02-02T05:07:36.348Z,14.00
2023-02-02T05:10:04.800Z,13.23
2023-02-02T05:12:33.039Z,16.60
2023-02-02T05:15:02.132Z,17.40
2023-02-02T05:17:30.314Z,16.30
2023-02-02T05:19:59.816Z,25.87
2023-02-02T05:22:27.993Z,18.67
2023-02-02T05:24:56.160Z,15.13
2023-02-02T05:27:24.331Z,7.53
2023-02-02T05:29:52.522Z,13.30
2023-02-02T05:32:20.665Z,12.30
2023-02-02T05:34:48.894Z,14.47
2023-02-02T05:37:18.417Z,18.90
2023-02-02T05:39:46.553Z,16.17
2023-02-02T05:42:14.681Z,14.07
2023-02-02T05:44:42.898Z,13.27
2023-02-02T05:47:11.096Z,16.37
2023-02-02T05:49:39.243Z,23.00
2023-02-02T05:52:07.525Z,16.20
2023-02-02T05:54:37.013Z,17.60
2023-02-02T05:57:05.367Z,20.07
2023-02-02T05:59:33.512Z,20.33
2023-02-02T06:02:01.755Z,14.83
2023-02-02T06:04:29.980Z,17.50
2023-02-02T06:06:58.154Z,15.70
2023-02-02T06:09:26.321Z,13.20
2023-02-02T06:11:55.787Z,15.33
2023-02-02T06:14:23.957Z,12.27
2023-02-02T06:16:52.145Z,16.90
2023-02-02T06:19:20.995Z,23.50
2023-02-02T06:21:49.147Z,13.03
2023-02-02T06:24:17.377Z,20.13
2023-02-02T06:26:45.667Z,16.40
2023-02-02T06:29:15.854Z,16.20
2023-02-02T06:31:44.074Z,14.80
2023-02-02T06:34:14.579Z,18.77
2023-02-02T06:36:43.389Z,14.60
2023-02-02T06:39:11.676Z,18.17
2023-02-02T06:41:40.401Z,14.13
2023-02-02T06:44:08.699Z,19.30
2023-02-02T06:46:38.306Z,10.47
2023-02-02T06:49:06.573Z,16.63
2023-02-02T06:51:34.696Z,17.17
2023-02-02T06:54:03.913Z,16.23
2023-02-02T06:56:32.112Z,12.67
2023-02-02T06:59:00.341Z,19.23
2023-02-02T07:01:28.591Z,19.33
2023-02-02T07:03:58.151Z,13.57
2023-02-02T07:06:27.392Z,19.00
2023-02-02T07:09:01.721Z,11.47
2023-02-02T07:11:31.120Z,18.67
2023-02-02T07:13:59.607Z,21.10
2023-02-02T07:16:27.745Z,18.73
2023-02-02T07:18:56.962Z,19.87
2023-02-02T07:21:28.352Z,16.87
2023-02-02T07:23:56.581Z,19.03
2023-02-02T07:26:24.760Z,17.07
2023-02-02T07:28:53.596Z,13.17
2023-02-02T07:31:23.554Z,13.37
2023-02-02T07:33:52.054Z,14.37
2023-02-02T07:36:20.932Z,18.43
2023-02-02T07:38:50.904Z,18.27
2023-02-02T07:41:19.171Z,17.37
2023-02-02T07:43:48.863Z,16.10
2023-02-02T07:46:17.663Z,12.50
2023-02-02T07:48:45.903Z,17.67
2023-02-02T07:51:15.042Z,18.00
2023-02-02T07:53:44.868Z,18.03
2023-02-02T07:56:15.251Z,17.73
2023-02-02T07:58:43.969Z,12.97
2023-02-02T08:01:13.552Z,19.80
2023-02-02T08:03:42.871Z,14.03
2023-02-02T08:06:12.765Z,20.50
2023-02-02T08:08:41.025Z,14.13
2023-02-02T08:11:10.694Z,14.57
2023-02-02T08:13:40.456Z,15.97
2023-02-02T08:16:08.895Z,14.67
2023-02-02T08:18:38.176Z,19.53
2023-02-02T08:21:08.399Z,16.83
2023-02-02T08:23:36.890Z,16.37
2023-02-02T08:26:08.826Z,22.37
2023-02-02T08:28:37.237Z,18.27
2023-02-02T08:31:07.562Z,10.50
2023-02-02T08:33:36.224Z,16.60
2023-02-02T08:36:04.449Z,9.17
2023-02-02T08:38:32.725Z,20.43
2023-02-02T08:41:06.359Z,18.80
2023-02-02T08:43:34.570Z,11.33
2023-02-02T08:46:05.629Z,13.60
2023-02-02T08:48:35.580Z,13.93
2023-02-02T08:51:04.503Z,17.67
2023-02-02T08:53:32.866Z,22.57
2023-02-02T08:56:01.565Z,15.07
2023-02-02T08:58:30.108Z,19.03
2023-02-02T09:01:05.904Z,20.30
2023-02-02T09:03:35.691Z,14.77
2023-02-02T09:06:07.686Z,18.23
2023-02-02T09:08:35.976Z,17.83
2023-02-02T09:11:05.352Z,11.20
2023-02-02T09:13:33.558Z,17.90
2023-02-02T09:16:02.100Z,12.13
2023-02-02T09:18:30.256Z,18.27
2023-02-02T09:21:02.689Z,18.17
2023-02-02T09:23:31.379Z,15.30
2023-02-02T09:25:59.597Z,15.23
2023-02-02T09:28:27.943Z,17.40
2023-02-02T09:30:56.263Z,14.50
2023-02-02T09:33:24.683Z,21.83
2023-02-02T09:35:52.872Z,11.00
2023-02-02T09:38:22.347Z,16.73
2023-02-02T09:40:50.571Z,11.60
2023-02-02T09:43:25.949Z,18.20
2023-02-02T09:45:56.971Z,15.43
2023-02-02T09:48:30.153Z,11.63
2023-02-02T09:51:00.380Z,11.10
2023-02-02T09:53:36.611Z,13.50
2023-02-02T09:56:08.259Z,16.00
2023-02-02T09:58:38.236Z,9.33
2023-02-02T10:01:08.629Z,11.97
2023-02-02T10:03:39.463Z,14.73
2023-02-02T10:06:13.732Z,15.83
2023-02-02T10:08:46.356Z,13.23
2023-02-02T10:11:30.611Z,14.87
2023-02-02T10:14:01.657Z,16.43
2023-02-02T10:16:30.725Z,10.60
2023-02-02T10:19:01.353Z,15.87
2023-02-02T10:21:33.882Z,12.47
2023-02-02T10:24:04.473Z,19.70
2023-02-02T10:26:38.321Z,15.80
2023-02-02T10:29:14.521Z,15.63
2023-02-02T10:31:48.362Z,14.03
2023-02-02T10:34:18.557Z,12.23
2023-02-02T10:36:55.461Z,13.20
2023-02-02T10:39:28.426Z,11.67
2023-02-02T10:42:01.595Z,16.03
2023-02-02T10:44:35.364Z,15.73
2023-02-02T10:47:05.728Z,10.00
2023-02-02T10:49:35.222Z,11.27
2023-02-02T10:52:07.089Z,13.13
2023-02-02T10:55:00.027Z,12.90
2023-02-02T10:57:41.222Z,12.93
2023-02-02T11:00:17.278Z,15.00
2023-02-02T11:02:45.588Z,21.13
2023-02-02T11:05:39.765Z,15.63
2023-02-02T11:08:15.394Z,18.30
2023-02-02T11:10:45.857Z,14.30
2023-02-02T11:13:17.294Z,16.33
2023-02-02T11:15:45.540Z,11.97
2023-02-02T11:18:27.110Z,20.23
2023-02-02T11:20:55.379Z,11.53
2023-02-02T11:23:23.836Z,14.87
2023-02-02T11:26:00.660Z,14.40
2023-02-02T11:28:31.046Z,17.27
2023-02-02T11:30:59.935Z,10.07
2023-02-02T11:33:29.416Z,11.27
2023-02-02T11:35:58.548Z,17.03
2023-02-02T11:38:27.524Z,14.97
2023-02-02T11:40:57.195Z,15.53
2023-02-02T11:43:29.754Z,12.20
2023-02-02T11:46:02.691Z,8.53
2023-02-02T11:48:33.352Z,10.03
2023-02-02T11:51:02.201Z,9.50
2023-02-02T11:53:31.862Z,10.37
2023-02-02T11:56:02.817Z,12.53
2023-02-02T11:58:44.134Z,10.03
2023-02-02T12:01:23.703Z,11.30
2023-02-02T12:03:52.320Z,14.37
2023-02-02T12:06:21.542Z,16.63
2023-02-02T12:08:50.141Z,12.53
2023-02-02T12:11:28.313Z,10.97
2023-02-02T12:14:03.468Z,13.77
2023-02-02T12:16:38.671Z,14.57
2023-02-02T12:19:18.857Z,11.73
2023-02-02T12:21:52.287Z,17.77
2023-02-02T12:24:30.083Z,13.67
2023-02-02T12:27:02.540Z,30.03
2023-02-02T12:29:37.406Z,52.10
2023-02-02T12:32:10.711Z,62.87
2023-02-02T12:34:49.132Z,91.40
2023-02-02T12:37:23.347Z,97.47
2023-02-02T12:39:58.009Z,144.97
2023-02-02T12:42:56.623Z,143.60
2023-02-02T12:45:34.957Z,134.67
2023-02-02T12:48:10.480Z,184.20
2023-02-02T12:50:41.479Z,207.60
2023-02-02T12:53:20.676Z,220.77
2023-02-02T12:55:53.401Z,223.10
2023-02-02T12:58:27.321Z,252.73
2023-02-02T13:01:06.212Z,249.83
2023-02-02T13:03:38.771Z,219.67
2023-02-02T13:06:15.889Z,255.93
2023-02-02T13:08:47.277Z,279.97
2023-02-02T13:11:30.711Z,316.77
2023-02-02T13:14:00.013Z,387.97
2023-02-02T13:16:31.058Z,283.60
2023-02-02T13:19:02.909Z,355.50
2023-02-02T13:21:32.351Z,333.13
2023-02-02T13:24:03.446Z,342.93
2023-02-02T13:26:35.470Z,344.57
2023-02-02T13:29:07.558Z,383.30
2023-02-02T13:31:40.666Z,349.97
2023-02-02T13:34:16.606Z,346.37
2023-02-02T13:36:47.536Z,399.97
2023-02-02T13:39:18.611Z,411.97
2023-02-02T13:41:47.296Z,467.63
2023-02-02T13:44:17.657Z,519.70
2023-02-02T13:46:52.846Z,531.27
2023-02-02T13:49:22.437Z,611.07
2023-02-02T13:51:54.709Z,658.77
2023-02-02T13:54:37.779Z,662.73
2023-02-02T13:57:13.327Z,674.30
2023-02-02T13:59:49.396Z,674.20
2023-02-02T14:02:25.351Z,686.03
2023-02-02T14:04:55.651Z,690.90
2023-02-02T14:07:28.761Z,690.77
2023-02-02T14:09:56.940Z,743.80
2023-02-02T14:12:30.470Z,777.30
2023-02-02T14:14:58.799Z,739.40
2023-02-02T14:17:47.009Z,777.40
2023-02-02T14:20:40.978Z,774.70
2023-02-02T14:23:24.043Z,777.30
2023-02-02T14:26:06.485Z,805.13
2023-02-02T14:28:42.113Z,785.20
2023-02-02T14:31:29.007Z,794.20
2023-02-02T14:34:24.243Z,772.03
2023-02-02T14:37:00.647Z,750.33
2023-02-02T14:39:30.763Z,740.40
2023-02-02T14:42:24.766Z,710.80
2023-02-02T14:45:17.401Z,738.73
2023-02-02T14:47:50.250Z,706.60
2023-02-02T14:50:19.488Z,726.47
2023-02-02T14:52:58.049Z,738.93
2023-02-02T14:55:26.703Z,721.27
2023-02-02T14:57:56.379Z,688.57
2023-02-02T15:00:26.365Z,618.90
2023-02-02T15:02:54.584Z,645.50
2023-02-02T15:05:43.942Z,645.60
2023-02-02T15:08:22.236Z,592.23
2023-02-02T15:11:01.719Z,605.10
2023-02-02T15:13:31.885Z,595.10
2023-02-02T15:16:05.430Z,553.07
2023-02-02T15:18:36.210Z,483.77
2023-02-02T15:21:07.018Z,467.70
2023-02-02T15:23:40.267Z,432.77
2023-02-02T15:26:10.183Z,438.47
2023-02-02T15:28:43.160Z,437.13
2023-02-02T15:31:17.513Z,448.23
2023-02-02T15:33:46.695Z,354.03
2023-02-02T15:36:17.864Z,280.13
2023-02-02T15:38:48.452Z,250.33
2023-02-02T15:41:20.507Z,205.47
2023-02-02T15:43:48.825Z,194.30
2023-02-02T15:46:24.112Z,199.40
2023-02-02T15:49:14.065Z,182.50
2023-02-02T15:51:45.441Z,172.97
2023-02-02T15:54:24.183Z,185.57
2023-02-02T15:56:52.826Z,178.97
2023-02-02T15:59:23.999Z,200.27
2023-02-02T16:01:54.441Z,183.03
2023-02-02T16:04:24.969Z,187.63
2023-02-02T16:06:53.238Z,168.47
2023-02-02T16:09:25.587Z,162.17
2023-02-02T16:11:53.831Z,148.87
2023-02-02T16:14:22.156Z,153.60
2023-02-02T16:16:50.464Z,123.13
2023-02-02T16:19:21.580Z,131.10
2023-02-02T16:21:52.795Z,128.97
2023-02-02T16:24:23.800Z,132.87
2023-02-02T16:26:54.242Z,139.57
2023-02-02T16:29:23.869Z,113.40
2023-02-02T16:31:52.744Z,112.87
2023-02-02T16:34:41.068Z,115.63
2023-02-02T16:37:09.988Z,115.57
2023-02-02T16:39:38.139Z,104.70
2023-02-02T16:42:11.399Z,119.90
2023-02-02T16:44:40.872Z,104.17
2023-02-02T16:47:09.895Z,84.57
2023-02-02T16:49:39.315Z,79.93
2023-02-02T16:52:25.226Z,68.93
2023-02-02T16:54:54.437Z,59.43
2023-02-02T16:57:25.518Z,50.70
2023-02-02T16:59:54.736Z,49.77
2023-02-02T17:02:26.522Z,56.30
2023-02-02T17:04:58.098Z,53.40
2023-02-02T17:07:26.556Z,44.37
2023-02-02T17:10:11.666Z,41.20
2023-02-02T17:12:41.408Z,39.47
2023-02-02T17:15:24.873Z,41.47
2023-02-02T17:17:53.575Z,43.07
2023-02-02T17:20:22.140Z,45.20
2023-02-02T17:22:51.249Z,40.00
2023-02-02T17:25:20.351Z,34.23
2023-02-02T17:27:50.020Z,32.83
2023-02-02T17:30:19.549Z,34.77
2023-02-02T17:32:47.756Z,30.63
2023-02-02T17:35:16.490Z,26.23
2023-02-02T17:37:44.841Z,24.03
2023-02-02T17:40:14.890Z,22.83
2023-02-02T17:42:43.899Z,23.37
2023-02-02T17:45:16.273Z,28.50
2023-02-02T17:47:44.578Z,31.80
2023-02-02T17:50:13.091Z,31.90
2023-02-02T17:52:41.369Z,41.30
2023-02-02T17:55:14.624Z,40.57
2023-02-02T17:57:42.758Z,38.67
2023-02-02T18:00:11.858Z,36.23
2023-02-02T18:02:41.466Z,38.53
2023-02-02T18:05:10.267Z,39.63
2023-02-02T18:07:38.971Z,36.80
2023-02-02T18:10:07.727Z,39.83
2023-02-02T18:12:35.969Z,42.60
2023-02-02T18:15:05.122Z,41.33
2023-02-02T18:17:34.201Z,41.47
2023-02-02T18:20:04.111Z,43.33
2023-02-02T18:22:32.478Z,41.43
2023-02-02T18:25:00.687Z,36.90
2023-02-02T18:27:30.989Z,33.90
2023-02-02T18:29:59.223Z,32.33
2023-02-02T18:32:27.346Z,31.23
2023-02-02T18:34:56.497Z,27.10
2023-02-02T18:37:26.393Z,25.93
2023-02-02T18:39:54.895Z,26.73
2023-02-02T18:42:24.918Z,28.40
2023-02-02T18:44:54.317Z,28.20
2023-02-02T18:47:22.431Z,26.47
2023-02-02T18:49:50.655Z,24.47
2023-02-02T18:52:18.989Z,23.63
2023-02-02T18:54:49.753Z,22.70
2023-02-02T18:57:18.427Z,18.83
2023-02-02T18:59:46.578Z,20.67
2023-02-02T19:02:15.666Z,20.27
2023-02-02T19:05:04.694Z,19.00
2023-02-02T19:07:53.339Z,19.37
2023-02-02T19:10:23.187Z,16.73
2023-02-02T19:12:53.698Z,18.37
2023-02-02T19:15:21.911Z,15.13
2023-02-02T19:17:51.942Z,15.00
2023-02-02T19:20:23.297Z,15.03
2023-02-02T19:22:53.041Z,14.63
2023-02-02T19:25:22.820Z,14.73
2023-02-02T19:27:50.984Z,12.63
2023-02-02T19:30:20.714Z,10.93
2023-02-02T19:32:48.983Z,12.43
2023-02-02T19:35:19.727Z,14.27
2023-02-02T19:37:48.539Z,14.90
2023-02-02T19:40:21.198Z,16.33
2023-02-02T19:42:53.126Z,20.67
2023-02-02T19:45:25.243Z,19.70
2023-02-02T19:47:53.900Z,16.13
2023-02-02T19:50:23.207Z,19.63
2023-02-02T19:52:51.842Z,19.03
2023-02-02T19:55:23.112Z,21.30
2023-02-02T19:57:52.743Z,21.23
2023-02-02T20:00:22.529Z,19.07
2023-02-02T20:02:55.833Z,20.13
2023-02-02T20:05:25.534Z,21.23
2023-02-02T20:07:56.105Z,24.67
2023-02-02T20:10:26.171Z,26.27
2023-02-02T20:12:56.454Z,24.57
2023-02-02T20:15:33.733Z,22.40
2023-02-02T20:18:02.761Z,30.67
2023-02-02T20:20:32.261Z,26.50
2023-02-02T20:23:00.634Z,35.53
2023-02-02T20:25:32.119Z,36.07
2023-02-02T20:28:08.531Z,33.70
2023-02-02T20:30:36.804Z,37.83
2023-02-02T20:33:19.251Z,33.23
2023-02-02T20:35:47.421Z,39.87
2023-02-02T20:38:18.481Z,49.53
2023-02-02T20:40:46.782Z,48.07
2023-02-02T20:43:16.296Z,46.73
2023-02-02T20:45:44.511Z,40.50
2023-02-02T20:48:14.146Z,36.10
2023-02-02T20:50:42.373Z,38.07
2023-02-02T20:53:10.964Z,39.70
2023-02-02T20:55:39.187Z,35.80
2023-02-02T20:58:09.554Z,34.67
2023-02-02T21:00:39.691Z,35.43
2023-02-02T21:03:07.901Z,30.47
2023-02-02T21:05:36.089Z,33.70
2023-02-02T21:08:04.561Z,30.53
2023-02-02T21:10:32.836Z,30.67
2023-02-02T21:13:01.107Z,31.97
2023-02-02T21:15:29.310Z,37.23
2023-02-02T21:17:58.828Z,32.00
2023-02-02T21:20:27.285Z,26.87
2023-02-02T21:22:56.716Z,31.50
2023-02-02T21:25:24.956Z,32.43
2023-02-02T21:27:53.105Z,33.00
2023-02-02T21:30:21.391Z,30.50
2023-02-02T21:32:49.590Z,29.13
2023-02-02T21:35:19.481Z,28.03
2023-02-02T21:37:51.433Z,26.37
2023-02-02T21:40:24.350Z,26.17
2023-02-02T21:42:52.745Z,28.90
2023-02-02T21:45:35.343Z,27.70
2023-02-02T21:48:04.449Z,28.37
2023-02-02T21:50:36.044Z,25.90
2023-02-02T21:53:19.795Z,26.37
2023-02-02T21:55:48.656Z,24.73
2023-02-02T21:58:19.814Z,27.03
2023-02-02T22:00:48.220Z,26.07
2023-02-02T22:03:30.464Z,22.00
2023-02-02T22:06:03.931Z,21.50
2023-02-02T22:08:34.900Z,24.40
2023-02-02T22:11:03.168Z,27.97
2023-02-02T22:13:35.006Z,24.37
2023-02-02T22:16:03.673Z,28.20
2023-02-02T22:18:33.122Z,24.93
2023-02-02T22:21:02.664Z,24.17
2023-02-02T22:23:30.972Z,29.70
2023-02-02T22:25:59.775Z,27.07
2023-02-02T22:28:29.310Z,27.23
2023-02-02T22:30:58.545Z,25.47
2023-02-02T22:33:26.954Z,24.97
2023-02-02T22:35:55.289Z,23.40
2023-02-02T22:38:25.809Z,21.03
2023-02-02T22:40:54.317Z,20.23
2023-02-02T22:43:22.977Z,20.40
2023-02-02T22:45:51.123Z,16.33
2023-02-02T22:48:19.283Z,17.03
2023-02-02T22:50:48.121Z,14.97
2023-02-02T22:53:16.336Z,12.50
2023-02-02T22:55:45.884Z,13.53
2023-02-02T22:58:14.065Z,14.27
2023-02-02T23:00:42.298Z,18.13
2023-02-02T23:03:10.491Z,20.93
2023-02-02T23:05:38.709Z,17.17
2023-02-02T23:08:07.133Z,15.43
2023-02-02T23:10:36.000Z,12.97
2023-02-02T23:13:06.792Z,24.37
2023-02-02T23:15:34.982Z,16.73
2023-02-02T23:18:03.336Z,12.10
2023-02-02T23:20:31.506Z,15.20
2023-02-02T23:22:59.636Z,15.03
2023-02-02T23:25:27.826Z,16.87
2023-02-02T23:27:56.003Z,17.10
2023-02-02T23:30:25.851Z,20.30
2023-02-02T23:32:54.164Z,15.73
2023-02-02T23:35:22.389Z,16.53
2023-02-02T23:37:50.599Z,18.43
2023-02-02T23:40:18.868Z,25.50
2023-02-02T23:42:47.080Z,17.23
2023-02-02T23:45:16.490Z,16.23
2023-02-02T23:47:46.401Z,16.33
2023-02-02T23:50:14.784Z,15.53
2023-02-02T23:52:43.053Z,14.07
2023-02-02T23:55:11.433Z,15.47
2023-02-02T23:57:39.958Z,14.07
